Time;durP1;ratioP1;P1;durP2;ratioP2;P2;SDS_P1;SDS_P2;PMS_P1;PMS_P2;Temp;Humidity;BMP_temperature;BMP_pressure;BME280_temperature;BME280_humidity;BME280_pressure;Samples;Min_cycle;Max_cycle;Signal;HPM_P1;HPM_P2
2022/12/03 00:00:37;;;;;;;17.00;8.48;;;;;9.00;102224.00;;;;5013852;28;20207;-76
2022/12/03 00:03:05;;;;;;;15.40;8.40;;;;;9.00;102228.00;;;;5007581;28;20730;-76
2022/12/03 00:05:32;;;;;;;21.60;9.60;;;;;9.00;102211.00;;;;5025944;28;20197;-76
2022/12/03 00:07:59;;;;;;;14.95;8.65;;;;;9.10;102217.00;;;;5020172;28;20201;-76
2022/12/03 00:10:26;;;;;;;12.75;8.45;;;;;9.10;102215.00;;;;5017288;28;20197;-76
2022/12/03 00:12:54;;;;;;;14.70;9.20;;;;;9.10;102220.00;;;;5012509;28;20693;-76
2022/12/03 00:15:21;;;;;;;15.60;8.90;;;;;9.10;102215.00;;;;5011615;28;20208;-76
2022/12/03 00:17:50;;;;;;;17.23;9.95;;;;;9.10;102211.00;;;;5017031;28;20224;-76
2022/12/03 00:20:21;;;;;;;16.40;9.10;;;;;9.10;102215.00;;;;5017425;28;20671;-75
2022/12/03 00:22:48;;;;;;;16.25;9.52;;;;;9.10;102218.00;;;;5007801;28;20207;-76
2022/12/03 00:25:15;;;;;;;16.35;9.20;;;;;9.10;102214.00;;;;5009102;28;20201;-75
2022/12/03 00:27:43;;;;;;;17.70;10.00;;;;;9.10;102216.00;;;;5016600;28;20201;-75
2022/12/03 00:30:12;;;;;;;17.55;9.90;;;;;9.10;102202.00;;;;5008093;28;20197;-76
2022/12/03 00:32:39;;;;;;;16.40;9.90;;;;;9.10;102208.00;;;;5005674;28;20557;-75
2022/12/03 00:35:08;;;;;;;17.00;8.88;;;;;9.10;102205.00;;;;5007122;28;20216;-76
2022/12/03 00:37:36;;;;;;;15.68;9.63;;;;;9.10;102207.00;;;;5008408;28;20233;-75
2022/12/03 00:40:04;;;;;;;17.58;9.75;;;;;9.10;102198.00;;;;5013156;28;20205;-76
2022/12/03 00:42:31;;;;;;;17.88;9.80;;;;;9.10;102197.00;;;;5018937;28;20216;-76
2022/12/03 00:44:58;;;;;;;16.30;8.65;;;;;9.20;102200.00;;;;5026355;28;20215;-76
2022/12/03 00:47:26;;;;;;;16.25;9.15;;;;;9.20;102187.00;;;;5023586;28;20197;-75
2022/12/03 00:49:53;;;;;;;15.32;9.07;;;;;9.20;102194.00;;;;5015567;28;20193;-75
2022/12/03 00:52:21;;;;;;;15.15;9.18;;;;;9.20;102191.00;;;;5013646;28;20784;-76
2022/12/03 00:54:49;;;;;;;17.88;9.35;;;;;9.20;102188.00;;;;5018837;28;20742;-76
2022/12/03 00:57:16;;;;;;;18.85;9.48;;;;;9.20;102184.00;;;;5012716;28;20273;-76
2022/12/03 00:59:43;;;;;;;16.30;9.20;;;;;9.20;102192.00;;;;5020863;28;20232;-76
2022/12/03 01:02:10;;;;;;;17.35;9.38;;;;;9.20;102184.00;;;;5012786;28;20208;-76
2022/12/03 01:04:38;;;;;;;18.55;10.50;;;;;9.20;102186.00;;;;5025708;28;20683;-76
2022/12/03 01:07:05;;;;;;;17.67;10.18;;;;;9.20;102186.00;;;;5017981;28;20205;-75
2022/12/03 01:09:34;;;;;;;19.10;10.82;;;;;9.20;102174.00;;;;5031788;28;20203;-76
2022/12/03 01:12:01;;;;;;;17.08;9.00;;;;;9.20;102171.00;;;;5021346;28;20224;-76
2022/12/03 01:14:28;;;;;;;15.70;9.98;;;;;9.20;102173.00;;;;5013858;28;20205;-76
2022/12/03 01:16:56;;;;;;;18.70;9.95;;;;;9.20;102172.00;;;;5019515;28;20594;-76
2022/12/03 01:19:23;;;;;;;18.65;10.57;;;;;9.30;102174.00;;;;5011669;28;20232;-75
2022/12/03 01:21:52;;;;;;;17.38;9.55;;;;;9.20;102165.00;;;;5010230;28;20201;-76
2022/12/03 01:24:20;;;;;;;18.27;10.57;;;;;9.20;102171.00;;;;5020522;28;20208;-75
2022/12/03 01:26:48;;;;;;;16.30;9.70;;;;;9.20;102167.00;;;;5023633;28;20254;-76
2022/12/03 01:29:16;;;;;;;15.88;9.13;;;;;9.20;102169.00;;;;5011750;28;20200;-75
2022/12/03 01:34:28;;;;;;;17.27;9.40;;;;;9.20;102164.00;;;;5023725;28;20210;-76
2022/12/03 01:36:55;;;;;;;15.02;9.25;;;;;9.30;102159.00;;;;5027156;28;20207;-75
2022/12/03 01:39:22;;;;;;;15.82;8.82;;;;;9.30;102163.00;;;;5013331;28;20221;-75
2022/12/03 01:41:52;;;;;;;15.52;8.98;;;;;9.20;102167.00;;;;5015239;28;20212;-76
2022/12/03 01:44:23;;;;;;;15.30;8.98;;;;;9.20;102166.00;;;;5014942;28;20267;-76
2022/12/03 01:46:51;;;;;;;16.27;8.93;;;;;9.30;102168.00;;;;5022466;28;20204;-76
2022/12/03 01:49:22;;;;;;;16.73;9.68;;;;;9.30;102167.00;;;;5008538;28;20213;-76
2022/12/03 01:51:51;;;;;;;17.45;9.55;;;;;9.30;102172.00;;;;5011490;28;20204;-76
2022/12/03 01:54:21;;;;;;;17.42;9.82;;;;;9.30;102160.00;;;;5011395;28;20683;-76
2022/12/03 01:56:50;;;;;;;15.23;9.50;;;;;9.30;102166.00;;;;5026033;28;20219;-76
2022/12/03 01:59:21;;;;;;;15.23;8.45;;;;;9.30;102165.00;;;;5023707;28;20687;-75
2022/12/03 02:01:48;;;;;;;18.40;9.60;;;;;9.30;102163.00;;;;5012302;28;20228;-75
2022/12/03 02:04:17;;;;;;;16.83;10.00;;;;;9.30;102161.00;;;;5021994;28;20212;-76
2022/12/03 02:06:45;;;;;;;18.30;10.25;;;;;9.30;102155.00;;;;5022267;28;20213;-76
2022/12/03 02:09:13;;;;;;;16.13;9.60;;;;;9.30;102163.00;;;;5017984;28;20685;-76
2022/12/03 02:11:45;;;;;;;18.70;9.82;;;;;9.30;102165.00;;;;5019275;28;20578;-75
2022/12/03 02:14:16;;;;;;;18.45;10.30;;;;;9.30;102159.00;;;;5037562;28;20220;-75
2022/12/03 02:16:44;;;;;;;17.33;9.77;;;;;9.30;102154.00;;;;5028562;28;20223;-76
2022/12/03 02:19:20;;;;;;;17.95;9.07;;;;;9.20;102162.00;;;;5045691;28;20234;-76
2022/12/03 02:21:59;;;;;;;17.23;9.32;;;;;9.30;102161.00;;;;5019835;28;20201;-76
2022/12/03 02:24:33;;;;;;;16.75;10.18;;;;;9.30;102160.00;;;;5036962;28;20551;-76
2022/12/03 02:27:02;;;;;;;16.60;9.85;;;;;9.30;102155.00;;;;5014680;28;20215;-76
2022/12/03 02:29:31;;;;;;;19.77;9.93;;;;;9.30;102156.00;;;;5027347;28;20674;-76
2022/12/03 02:31:58;;;;;;;17.20;9.07;;;;;9.30;102159.00;;;;5013395;28;20212;-76
2022/12/03 02:34:39;;;;;;;18.63;10.45;;;;;9.20;102152.00;;;;5034709;28;20674;-76
2022/12/03 02:37:09;;;;;;;16.92;9.60;;;;;9.30;102154.00;;;;5019335;28;20208;-76
2022/12/03 02:39:40;;;;;;;17.38;9.32;;;;;9.30;102151.00;;;;5042515;28;20227;-76
2022/12/03 02:44:56;;;;;;;15.57;9.10;;;;;9.30;102157.00;;;;5016105;28;20691;-76
2022/12/03 02:47:23;;;;;;;16.23;9.75;;;;;9.30;102156.00;;;;5031063;28;20199;-76
2022/12/03 02:49:51;;;;;;;18.30;9.57;;;;;9.30;102156.00;;;;5020871;28;20209;-76
2022/12/03 02:52:19;;;;;;;15.63;9.10;;;;;9.30;102149.00;;;;5014480;28;20209;-76
2022/12/03 02:54:47;;;;;;;17.65;9.20;;;;;9.40;102148.00;;;;5010989;28;20197;-77
2022/12/03 02:57:16;;;;;;;18.63;9.73;;;;;9.30;102144.00;;;;5036890;28;20200;-76
2022/12/03 02:59:45;;;;;;;23.25;9.68;;;;;9.40;102140.00;;;;5023053;28;20240;-76
2022/12/03 03:02:13;;;;;;;18.08;9.32;;;;;9.40;102152.00;;;;5012370;28;20347;-76
2022/12/03 03:04:42;;;;;;;17.98;10.68;;;;;9.40;102146.00;;;;5026325;28;20219;-76
2022/12/03 03:07:10;;;;;;;19.02;11.00;;;;;9.40;102146.00;;;;5023385;28;20185;-76
2022/12/03 03:09:37;;;;;;;20.23;10.60;;;;;9.30;102139.00;;;;5020938;28;20204;-76
2022/12/03 03:12:05;;;;;;;19.10;10.25;;;;;9.30;102140.00;;;;5015219;28;20197;-76
2022/12/03 03:14:34;;;;;;;20.80;11.13;;;;;9.30;102140.00;;;;5021712;28;20193;-76
2022/12/03 03:17:01;;;;;;;17.60;9.82;;;;;9.40;102131.00;;;;5021693;28;20211;-76
2022/12/03 03:19:29;;;;;;;17.08;9.43;;;;;9.40;102137.00;;;;5014778;28;20366;-76
2022/12/03 03:21:57;;;;;;;17.27;8.90;;;;;9.40;102130.00;;;;5030183;28;20270;-76
2022/12/03 03:24:25;;;;;;;20.35;10.73;;;;;9.40;102139.00;;;;5029270;28;20207;-76
2022/12/03 03:26:52;;;;;;;21.90;10.27;;;;;9.40;102125.00;;;;5026469;28;20208;-76
2022/12/03 03:29:20;;;;;;;20.17;11.10;;;;;9.40;102131.00;;;;5020761;28;20201;-76
2022/12/03 03:31:49;;;;;;;16.40;10.05;;;;;9.40;102128.00;;;;5022323;28;20208;-76
2022/12/03 03:34:17;;;;;;;20.08;11.10;;;;;9.40;102132.00;;;;5009859;28;20212;-76
2022/12/03 03:36:45;;;;;;;18.88;10.15;;;;;9.40;102129.00;;;;5015705;28;20204;-76
2022/12/03 03:39:12;;;;;;;17.83;10.82;;;;;9.40;102131.00;;;;5020086;28;20224;-76
2022/12/03 03:41:42;;;;;;;16.05;9.52;;;;;9.50;102130.00;;;;5019169;28;20682;-76
2022/12/03 03:44:10;;;;;;;18.83;10.65;;;;;9.50;102125.00;;;;5030667;28;20224;-76
2022/12/03 03:46:38;;;;;;;17.65;10.25;;;;;9.50;102126.00;;;;5022414;28;20196;-76
2022/12/03 03:49:08;;;;;;;19.58;10.27;;;;;9.50;102120.00;;;;5017395;28;20224;-76
2022/12/03 03:51:36;;;;;;;20.63;10.77;;;;;9.50;102119.00;;;;5028431;28;20295;-76
2022/12/03 03:54:05;;;;;;;17.80;10.23;;;;;9.50;102118.00;;;;5011055;28;20208;-75
2022/12/03 03:56:34;;;;;;;20.83;11.18;;;;;9.50;102112.00;;;;5018744;28;20681;-76
2022/12/03 03:59:01;;;;;;;20.75;10.40;;;;;9.50;102110.00;;;;5018612;28;20230;-76
2022/12/03 04:01:29;;;;;;;18.88;10.85;;;;;9.50;102110.00;;;;5028234;28;20830;-76
2022/12/03 04:03:58;;;;;;;20.05;10.52;;;;;9.50;102107.00;;;;5027421;28;20215;-76
2022/12/03 04:06:27;;;;;;;22.95;11.93;;;;;9.50;102098.00;;;;5017187;28;20295;-76
2022/12/03 04:08:54;;;;;;;19.98;10.95;;;;;9.50;102099.00;;;;5016590;28;20205;-76
2022/12/03 04:14:06;;;;;;;18.63;9.60;;;;;9.50;102100.00;;;;5017996;28;20235;-76
2022/12/03 04:16:33;;;;;;;17.77;9.88;;;;;9.50;102104.00;;;;5026222;28;20200;-76
2022/12/03 04:19:00;;;;;;;19.92;10.77;;;;;9.50;102099.00;;;;5014851;28;20690;-77
2022/12/03 04:24:14;;;;;;;19.35;11.05;;;;;9.50;102102.00;;;;5012855;28;20327;-76
2022/12/03 04:29:26;;;;;;;19.92;10.13;;;;;9.50;102097.00;;;;5010315;28;20678;-76
2022/12/03 04:37:24;;;;;;;19.30;10.90;;;;;9.50;102092.00;;;;5020803;28;20231;-76
2022/12/03 04:39:51;;;;;;;22.30;11.05;;;;;9.50;102095.00;;;;5024887;28;20234;-76
2022/12/03 04:42:18;;;;;;;18.30;10.30;;;;;9.50;102095.00;;;;5015437;28;20201;-76
2022/12/03 04:44:45;;;;;;;19.85;10.75;;;;;9.50;102095.00;;;;5008303;28;20790;-76
2022/12/03 04:47:14;;;;;;;18.27;9.88;;;;;9.50;102092.00;;;;5019489;28;20203;-77
2022/12/03 04:49:43;;;;;;;20.20;10.65;;;;;9.50;102085.00;;;;5010179;28;20196;-77
2022/12/03 04:52:11;;;;;;;17.95;10.95;;;;;9.50;102091.00;;;;5026101;28;20204;-76
2022/12/03 04:54:40;;;;;;;21.23;10.60;;;;;9.50;102091.00;;;;5028082;28;20682;-76
2022/12/03 04:57:08;;;;;;;20.30;10.30;;;;;9.60;102091.00;;;;5012335;28;20208;-76
2022/12/03 04:59:36;;;;;;;21.38;10.98;;;;;9.60;102091.00;;;;5009625;28;20239;-76
2022/12/03 05:02:05;;;;;;;19.40;10.23;;;;;9.50;102087.00;;;;5015768;28;20842;-76
2022/12/03 05:04:32;;;;;;;20.45;10.75;;;;;9.50;102097.00;;;;5021519;28;20844;-77
2022/12/03 05:07:00;;;;;;;19.45;11.10;;;;;9.50;102087.00;;;;5017968;28;20223;-77
2022/12/03 05:09:27;;;;;;;18.40;10.25;;;;;9.50;102090.00;;;;5021105;28;20200;-76
2022/12/03 05:11:56;;;;;;;15.82;9.55;;;;;9.50;102095.00;;;;5022387;28;21076;-76
2022/12/03 05:14:23;;;;;;;15.10;9.55;;;;;9.50;102089.00;;;;5024685;28;20207;-76
2022/12/03 05:16:50;;;;;;;17.98;10.35;;;;;9.50;102086.00;;;;5010507;28;20205;-77
2022/12/03 05:19:17;;;;;;;19.00;9.75;;;;;9.50;102077.00;;;;5007071;28;20224;-76
2022/12/03 05:21:44;;;;;;;16.17;10.05;;;;;9.50;102091.00;;;;5024661;28;20196;-76
2022/12/03 05:24:11;;;;;;;15.43;9.52;;;;;9.50;102086.00;;;;5017029;28;20734;-77
2022/12/03 05:26:38;;;;;;;18.13;10.23;;;;;9.50;102082.00;;;;5025860;28;20201;-76
2022/12/03 05:29:07;;;;;;;18.25;10.60;;;;;9.40;102085.00;;;;5020787;28;20208;-76
2022/12/03 05:31:34;;;;;;;20.23;11.70;;;;;9.50;102086.00;;;;5013848;28;20693;-76
2022/12/03 05:34:01;;;;;;;18.17;10.35;;;;;9.40;102082.00;;;;5027830;28;20205;-76
2022/12/03 05:36:29;;;;;;;17.10;9.43;;;;;9.40;102081.00;;;;5030147;28;20232;-76
2022/12/03 05:38:56;;;;;;;17.38;10.52;;;;;9.40;102080.00;;;;5026509;28;20227;-76
2022/12/03 05:44:24;;;;;;;16.25;9.43;;;;;9.40;102069.00;;;;4961914;28;20284;-76
2022/12/03 05:46:51;;;;;;;14.30;8.65;;;;;9.40;102069.00;;;;5010366;28;20205;-76
2022/12/03 05:49:19;;;;;;;18.33;10.50;;;;;9.40;102074.00;;;;5015217;28;20226;-76
2022/12/03 05:51:46;;;;;;;17.42;9.65;;;;;9.40;102072.00;;;;5010446;28;20597;-76
2022/12/03 05:54:13;;;;;;;17.25;10.00;;;;;9.50;102064.00;;;;5027533;28;20207;-76
2022/12/03 05:56:40;;;;;;;17.48;9.57;;;;;9.50;102063.00;;;;5017347;28;20200;-76
2022/12/03 05:59:08;;;;;;;17.20;9.85;;;;;9.50;102054.00;;;;5021984;28;20235;-76
2022/12/03 06:01:36;;;;;;;16.65;9.57;;;;;9.50;102056.00;;;;5013762;28;20221;-76
2022/12/03 06:04:03;;;;;;;17.40;9.30;;;;;9.50;102063.00;;;;5022127;28;20575;-76
2022/12/03 06:06:31;;;;;;;17.55;10.10;;;;;9.50;102056.00;;;;5014818;28;20197;-76
2022/12/03 06:08:58;;;;;;;17.10;9.80;;;;;9.50;102063.00;;;;5012345;28;20219;-75
2022/12/03 06:11:25;;;;;;;19.77;10.13;;;;;9.50;102056.00;;;;5027845;28;20206;-76
2022/12/03 06:13:53;;;;;;;16.90;9.93;;;;;9.50;102054.00;;;;5013806;28;20197;-75
2022/12/03 06:16:20;;;;;;;15.95;9.32;;;;;9.50;102057.00;;;;5027116;28;20207;-75
2022/12/03 06:18:48;;;;;;;14.40;8.82;;;;;9.50;102041.00;;;;5020847;28;20562;-76
2022/12/03 06:21:16;;;;;;;12.88;8.05;;;;;9.60;102051.00;;;;5013135;28;20201;-76
2022/12/03 06:23:43;;;;;;;14.35;8.55;;;;;9.60;102052.00;;;;5018834;28;20200;-75
2022/12/03 06:26:10;;;;;;;15.02;10.02;;;;;9.60;102048.00;;;;5019117;28;20258;-76
2022/12/03 06:28:38;;;;;;;16.13;9.75;;;;;9.60;102046.00;;;;5013662;28;20207;-76
2022/12/03 06:31:05;;;;;;;14.65;9.40;;;;;9.60;102044.00;;;;5020822;28;20203;-75
2022/12/03 06:33:32;;;;;;;16.50;9.90;;;;;9.60;102039.00;;;;5019831;28;20196;-76
2022/12/03 06:36:01;;;;;;;15.82;9.82;;;;;9.60;102055.00;;;;5014413;28;20236;-76
2022/12/03 06:38:28;;;;;;;14.65;9.35;;;;;9.60;102046.00;;;;5020324;28;20397;-75
2022/12/03 06:40:56;;;;;;;17.10;10.32;;;;;9.60;102043.00;;;;5027810;28;20224;-76
2022/12/03 06:43:23;;;;;;;13.65;9.77;;;;;9.60;102049.00;;;;5016774;28;20670;-75
2022/12/03 06:45:50;;;;;;;16.88;10.75;;;;;9.60;102042.00;;;;5022880;28;20201;-76
2022/12/03 06:48:17;;;;;;;15.63;10.02;;;;;9.50;102041.00;;;;5021964;28;20208;-76
2022/12/03 06:50:44;;;;;;;18.77;9.50;;;;;9.50;102053.00;;;;5015156;28;20204;-76
2022/12/03 06:53:14;;;;;;;14.32;9.65;;;;;9.50;102045.00;;;;5019973;28;20207;-76
2022/12/03 06:55:41;;;;;;;16.40;9.27;;;;;9.50;102048.00;;;;5028349;28;20211;-75
2022/12/03 06:58:08;;;;;;;15.52;9.25;;;;;9.50;102050.00;;;;5011330;28;20197;-75
2022/12/03 07:00:36;;;;;;;19.88;9.30;;;;;9.50;102059.00;;;;5011723;28;20221;-75
2022/12/03 07:03:03;;;;;;;14.43;9.18;;;;;9.40;102047.00;;;;5026268;28;20240;-76
2022/12/03 07:05:30;;;;;;;18.23;10.02;;;;;9.40;102047.00;;;;5023423;28;20201;-76
2022/12/03 07:07:58;;;;;;;16.40;9.80;;;;;9.40;102045.00;;;;5021148;28;20556;-76
2022/12/03 07:10:26;;;;;;;20.02;10.25;;;;;9.40;102050.00;;;;5015441;28;20200;-76
2022/12/03 07:12:54;;;;;;;15.95;9.07;;;;;9.40;102052.00;;;;5018652;28;20204;-76
2022/12/03 07:15:22;;;;;;;15.95;8.95;;;;;9.30;102047.00;;;;5010643;28;20212;-75
2022/12/03 07:17:49;;;;;;;15.63;8.82;;;;;9.40;102052.00;;;;5010387;28;20279;-75
2022/12/03 07:20:17;;;;;;;16.27;9.48;;;;;9.40;102056.00;;;;5018051;28;20221;-76
2022/12/03 07:22:44;;;;;;;14.82;9.02;;;;;9.40;102053.00;;;;5014419;28;20200;-76
2022/12/03 07:25:13;;;;;;;15.57;8.90;;;;;9.40;102050.00;;;;5015914;28;20588;-76
2022/12/03 07:27:41;;;;;;;16.98;9.52;;;;;9.40;102053.00;;;;5015497;28;20208;-75
2022/12/03 07:30:11;;;;;;;14.75;9.48;;;;;9.40;102054.00;;;;5023633;28;20192;-75
2022/12/03 07:32:38;;;;;;;15.73;9.50;;;;;9.40;102062.00;;;;5012989;28;20201;-75
2022/12/03 07:35:06;;;;;;;15.15;8.82;;;;;9.40;102061.00;;;;5012286;28;20235;-75
2022/12/03 07:37:34;;;;;;;15.15;9.40;;;;;9.40;102068.00;;;;5019823;28;20195;-75
2022/12/03 07:40:01;;;;;;;16.67;10.55;;;;;9.40;102064.00;;;;5026518;28;20236;-75
2022/12/03 07:42:28;;;;;;;17.83;10.07;;;;;9.40;102065.00;;;;5014571;28;20192;-76
2022/12/03 07:44:57;;;;;;;17.08;9.57;;;;;9.40;102067.00;;;;5013027;28;20562;-76
2022/12/03 07:47:24;;;;;;;15.40;8.98;;;;;9.40;102060.00;;;;5015013;28;20204;-76
2022/12/03 07:49:52;;;;;;;17.08;9.82;;;;;9.40;102068.00;;;;5016254;28;20209;-76
2022/12/03 07:52:19;;;;;;;19.42;10.05;;;;;9.40;102067.00;;;;5014865;28;20201;-75
2022/12/03 07:54:46;;;;;;;15.25;9.63;;;;;9.40;102068.00;;;;5011793;28;20207;-76
2022/12/03 07:57:13;;;;;;;14.07;9.32;;;;;9.40;102058.00;;;;5012194;28;20216;-75
2022/12/03 07:59:44;;;;;;;15.00;9.50;;;;;9.40;102066.00;;;;5013023;28;20227;-75
2022/12/03 08:02:12;;;;;;;15.40;8.90;;;;;9.40;102064.00;;;;5007318;28;20216;-75
2022/12/03 08:04:40;;;;;;;17.10;10.20;;;;;9.30;102053.00;;;;5019655;28;20200;-75
2022/12/03 08:07:07;;;;;;;16.17;10.38;;;;;9.30;102063.00;;;;5005965;28;20201;-75
2022/12/03 08:09:34;;;;;;;16.90;9.93;;;;;9.30;102059.00;;;;5007519;28;20211;-76
2022/12/03 08:12:08;;;;;;;16.80;9.55;;;;;9.30;102063.00;;;;5020535;28;20204;-75
2022/12/03 08:14:36;;;;;;;21.60;12.10;;;;;9.20;102064.00;;;;5042027;28;20691;-75
2022/12/03 08:17:09;;;;;;;19.73;10.23;;;;;9.30;102055.00;;;;5012593;28;20564;-75
2022/12/03 08:19:38;;;;;;;19.98;10.35;;;;;9.20;102053.00;;;;5022154;28;20216;-75
2022/12/03 08:22:11;;;;;;;18.13;10.55;;;;;9.20;102047.00;;;;5014578;28;20192;-75
2022/12/03 08:24:38;;;;;;;20.33;10.93;;;;;9.20;102050.00;;;;5020136;28;20852;-75
2022/12/03 08:27:13;;;;;;;19.33;11.15;;;;;9.20;102049.00;;;;5016393;28;20270;-75
2022/12/03 08:29:40;;;;;;;21.83;11.55;;;;;9.20;102044.00;;;;5027135;28;20592;-75
2022/12/03 08:32:11;;;;;;;17.73;10.88;;;;;9.20;102047.00;;;;5027672;28;20207;-75
2022/12/03 08:34:42;;;;;;;20.70;10.43;;;;;9.20;102046.00;;;;5018018;28;20240;-77
2022/12/03 08:37:16;;;;;;;17.48;10.18;;;;;9.10;102048.00;;;;5016540;28;20204;-76
2022/12/03 08:39:45;;;;;;;21.08;11.85;;;;;9.20;102050.00;;;;5006268;28;20204;-76
2022/12/03 08:45:38;;;;;;;19.17;10.38;;;;;9.10;102054.00;;;;5019993;28;20255;-76
2022/12/03 08:48:20;;;;;;;19.98;10.88;;;;;9.20;102038.00;;;;5009834;28;20205;-77
2022/12/03 08:50:49;;;;;;;17.02;10.52;;;;;9.20;102056.00;;;;5007552;28;20200;-77
2022/12/03 08:53:35;;;;;;;21.38;11.07;;;;;9.20;102047.00;;;;5006663;28;20659;-77
2022/12/03 08:56:08;;;;;;;19.60;11.27;;;;;9.20;102053.00;;;;5009425;28;20210;-77
2022/12/03 08:58:41;;;;;;;19.45;11.23;;;;;9.20;102054.00;;;;5014033;28;20419;-74
2022/12/03 09:01:33;;;;;;;23.23;12.13;;;;;9.10;102045.00;;;;5016529;28;20235;-74
2022/12/03 09:04:23;;;;;;;20.98;11.15;;;;;9.10;102045.00;;;;5012185;28;20204;-73
2022/12/03 09:06:53;;;;;;;22.92;13.05;;;;;9.10;102047.00;;;;5017018;28;20262;-74
2022/12/03 09:09:21;;;;;;;22.17;11.27;;;;;9.20;102048.00;;;;5027194;28;20295;-74
2022/12/03 09:11:49;;;;;;;22.13;11.52;;;;;9.10;102045.00;;;;5029524;28;20204;-73
2022/12/03 09:14:19;;;;;;;20.10;11.10;;;;;9.20;102039.00;;;;5017052;28;20201;-74
2022/12/03 09:16:47;;;;;;;21.05;10.80;;;;;9.20;102034.00;;;;5015894;28;20215;-74
2022/12/03 09:19:15;;;;;;;23.80;12.43;;;;;9.20;102030.00;;;;5016470;28;20271;-74
2022/12/03 09:21:43;;;;;;;29.02;12.50;;;;;9.20;102033.00;;;;5029229;28;21122;-74
2022/12/03 09:24:12;;;;;;;21.85;12.27;;;;;9.20;102032.00;;;;5022355;28;20200;-74
2022/12/03 09:26:39;;;;;;;25.70;13.93;;;;;9.20;102025.00;;;;5011675;28;20203;-74
2022/12/03 09:29:07;;;;;;;24.00;12.75;;;;;9.20;102028.00;;;;5012015;28;20196;-74
2022/12/03 09:31:34;;;;;;;22.98;11.60;;;;;9.20;102031.00;;;;5015476;28;20205;-74
2022/12/03 09:34:02;;;;;;;23.73;11.32;;;;;9.20;102024.00;;;;5020892;28;20196;-73
2022/12/03 09:36:29;;;;;;;25.15;12.60;;;;;9.20;102025.00;;;;5025370;28;20587;-75
2022/12/03 09:38:57;;;;;;;30.00;13.10;;;;;9.20;102022.00;;;;5019698;28;20196;-75
2022/12/03 09:41:26;;;;;;;21.48;11.98;;;;;9.20;102031.00;;;;5027888;28;20232;-75
2022/12/03 09:43:54;;;;;;;28.05;13.27;;;;;9.20;102024.00;;;;5013797;28;20654;-76
2022/12/03 09:46:22;;;;;;;21.58;10.95;;;;;9.20;102029.00;;;;5014030;28;20200;-76
2022/12/03 09:48:49;;;;;;;27.85;13.15;;;;;9.20;102030.00;;;;5012815;28;20209;-76
2022/12/03 09:51:17;;;;;;;26.83;11.90;;;;;9.20;102024.00;;;;5012179;28;20201;-76
2022/12/03 09:53:46;;;;;;;25.85;12.60;;;;;9.20;102029.00;;;;5010066;28;20588;-76
2022/12/03 09:56:18;;;;;;;26.42;13.18;;;;;9.10;102041.00;;;;5010456;28;20201;-76
2022/12/03 09:58:47;;;;;;;20.83;12.20;;;;;9.10;102038.00;;;;5009890;28;20201;-75
2022/12/03 10:01:15;;;;;;;27.40;12.50;;;;;9.10;102036.00;;;;5029075;28;20224;-76
2022/12/03 10:03:46;;;;;;;28.15;12.82;;;;;9.10;102038.00;;;;5025176;28;20590;-76
2022/12/03 10:06:18;;;;;;;23.80;12.55;;;;;9.10;102038.00;;;;5025295;28;20220;-74
2022/12/03 10:08:48;;;;;;;27.77;12.73;;;;;9.10;102033.00;;;;5030432;28;20192;-74
2022/12/03 10:11:16;;;;;;;28.25;12.82;;;;;9.10;102033.00;;;;5030315;28;20200;-76
2022/12/03 10:13:44;;;;;;;24.52;12.23;;;;;9.10;102034.00;;;;5021457;28;20209;-74
2022/12/03 10:16:16;;;;;;;24.65;12.32;;;;;9.10;102036.00;;;;5009707;28;20196;-74
2022/12/03 10:18:47;;;;;;;26.48;12.43;;;;;9.10;102027.00;;;;5009677;28;20216;-74
2022/12/03 10:21:19;;;;;;;29.33;12.18;;;;;9.10;102029.00;;;;5010605;28;20217;-73
2022/12/03 10:23:49;;;;;;;24.27;11.82;;;;;9.20;102028.00;;;;5009172;28;20204;-73
2022/12/03 10:26:16;;;;;;;27.83;13.70;;;;;9.10;102022.00;;;;5010090;28;20581;-73
2022/12/03 10:28:46;;;;;;;27.85;13.43;;;;;9.10;102027.00;;;;5019389;28;20212;-74
2022/12/03 10:31:15;;;;;;;27.15;12.35;;;;;9.10;102019.00;;;;5015659;28;20243;-74
2022/12/03 10:33:46;;;;;;;26.48;12.82;;;;;9.20;102026.00;;;;5009486;28;20489;-73
2022/12/03 10:36:22;;;;;;;27.70;11.88;;;;;9.10;102026.00;;;;5009719;28;20229;-76
2022/12/03 10:39:08;;;;;;;29.25;12.18;;;;;9.00;102025.00;;;;5011961;28;20670;-76
2022/12/03 10:41:36;;;;;;;22.77;11.48;;;;;9.10;102015.00;;;;5010050;28;20703;-76
2022/12/03 10:44:26;;;;;;;27.10;11.98;;;;;9.00;102014.00;;;;5009825;28;20579;-76
2022/12/03 10:47:09;;;;;;;28.13;12.93;;;;;9.00;102007.00;;;;5008115;28;20283;-76
2022/12/03 10:49:37;;;;;;;26.15;10.38;;;;;9.10;102005.00;;;;5011320;28;20189;-74
2022/12/03 10:52:06;;;;;;;29.25;12.82;;;;;9.10;102003.00;;;;5027766;28;20227;-76
2022/12/03 10:54:34;;;;;;;26.15;11.50;;;;;9.10;101996.00;;;;5023824;28;20204;-76
2022/12/03 10:57:03;;;;;;;28.10;13.35;;;;;9.10;101992.00;;;;5029925;28;20201;-76
2022/12/03 10:59:34;;;;;;;31.95;12.45;;;;;9.00;101990.00;;;;5028947;28;20650;-76
2022/12/03 11:02:07;;;;;;;27.63;12.70;;;;;9.00;101989.00;;;;5011500;28;20240;-74
2022/12/03 11:04:36;;;;;;;28.27;12.23;;;;;9.00;101990.00;;;;5020138;28;20193;-76
2022/12/03 11:07:11;;;;;;;29.38;13.73;;;;;9.00;101989.00;;;;5024501;28;20188;-76
2022/12/03 11:09:39;;;;;;;30.20;12.70;;;;;9.00;101992.00;;;;5027591;28;20199;-76
2022/12/03 11:12:07;;;;;;;24.65;12.35;;;;;8.90;101985.00;;;;5016404;28;20613;-76
2022/12/03 11:15:07;;;;;;;28.90;13.20;;;;;8.80;101977.00;;;;5029122;28;20196;-76
2022/12/03 11:17:47;;;;;;;29.45;12.20;;;;;8.90;101977.00;;;;5025504;28;20204;-76
2022/12/03 11:21:05;;;;;;;24.85;11.50;;;;;8.90;101983.00;;;;5008479;28;20690;-76
2022/12/03 11:24:03;;;;;;;24.63;11.88;;;;;8.90;101979.00;;;;4975909;28;20502;-74
2022/12/03 11:27:14;;;;;;;27.38;11.27;;;;;8.90;101970.00;;;;4981792;28;20216;-74
2022/12/03 11:29:54;;;;;;;29.45;12.45;;;;;8.90;101962.00;;;;5022517;28;20208;-75
2022/12/03 11:33:03;;;;;;;24.65;10.60;;;;;8.80;101957.00;;;;5008790;28;20205;-74
2022/12/03 11:35:59;;;;;;;26.95;12.65;;;;;8.90;101958.00;;;;5009123;28;20235;-74
2022/12/03 11:38:47;;;;;;;22.00;11.95;;;;;8.80;101955.00;;;;5009927;28;20211;-74
2022/12/03 11:41:17;;;;;;;22.27;11.60;;;;;8.90;101953.00;;;;5018900;28;20581;-74
2022/12/03 11:44:30;;;;;;;23.50;12.68;;;;;8.80;101945.00;;;;5014976;28;20714;-74
2022/12/03 11:47:00;;;;;;;20.80;9.80;;;;;8.90;101939.00;;;;5009271;28;20213;-74
2022/12/03 11:49:44;;;;;;;23.33;12.30;;;;;8.80;101940.00;;;;5017141;28;20211;-74
2022/12/03 11:52:22;;;;;;;24.63;11.95;;;;;8.90;101943.00;;;;5008290;28;20201;-74
2022/12/03 11:54:52;;;;;;;23.88;11.23;;;;;8.90;101939.00;;;;5026182;28;20432;-75
2022/12/03 11:57:29;;;;;;;21.95;10.25;;;;;8.90;101934.00;;;;5021869;28;20644;-74
2022/12/03 12:00:03;;;;;;;26.80;12.13;;;;;8.90;101943.00;;;;5009840;28;20192;-74
2022/12/03 12:02:30;;;;;;;21.98;10.32;;;;;9.00;101935.00;;;;5016523;28;20228;-75
2022/12/03 12:05:13;;;;;;;22.73;11.25;;;;;9.00;101933.00;;;;5018680;28;20651;-74
2022/12/03 12:07:44;;;;;;;19.67;10.27;;;;;9.00;101927.00;;;;5008789;28;20196;-73
2022/12/03 12:10:12;;;;;;;21.58;9.75;;;;;9.00;101925.00;;;;5014846;28;20659;-73
2022/12/03 12:12:41;;;;;;;19.35;9.45;;;;;9.00;101929.00;;;;5025662;28;20204;-73
2022/12/03 12:15:42;;;;;;;21.00;10.40;;;;;8.90;101923.00;;;;5028298;28;20739;-73
2022/12/03 12:18:38;;;;;;;22.50;9.80;;;;;8.90;101922.00;;;;5025148;28;20200;-73
2022/12/03 12:21:43;;;;;;;21.05;9.75;;;;;8.90;101911.00;;;;5014797;28;20239;-73
2022/12/03 12:24:32;;;;;;;17.85;9.80;;;;;8.90;101911.00;;;;5026555;28;20291;-74
2022/12/03 12:27:02;;;;;;;18.10;8.63;;;;;9.00;101907.00;;;;5027875;28;20200;-73
2022/12/03 12:29:29;;;;;;;19.25;10.38;;;;;9.00;101907.00;;;;5018319;28;20572;-73
2022/12/03 12:32:12;;;;;;;20.23;10.82;;;;;9.00;101903.00;;;;5018601;28;20219;-73
2022/12/03 12:34:40;;;;;;;18.45;9.80;;;;;9.10;101896.00;;;;5012547;28;20387;-74
2022/12/03 12:37:11;;;;;;;17.35;8.70;;;;;9.10;101891.00;;;;5020423;28;20209;-74
2022/12/03 12:39:40;;;;;;;18.42;9.02;;;;;9.10;101889.00;;;;5011859;28;20196;-74
2022/12/03 12:42:33;;;;;;;14.32;7.93;;;;;9.10;101886.00;;;;5012556;28;20656;-74
2022/12/03 12:45:14;;;;;;;16.83;7.70;;;;;9.10;101881.00;;;;5020723;28;20204;-74